RYR6831 LZIB-LIBD
Flight info
| Callsign | RYR6831 |
|---|---|
| Flight time | 1h 15m |
| Altitude | 35000 |
| Route | VAMOG DCT SIRDU DCT KOPRY DCT TIVNU DCT DIXUM DCT ORAKA DCT AIOSA DCT BANAV |
| Aircraft | B738/M-SDE2E3FGHIRWXY/LB1 |
Departure
| Time | 2026-05-08 21:15 |
|---|---|
| Airport | M. R. Štefánik Airport (LZIB) |
Arrival
| Time | 2026-05-08 22:30 |
|---|---|
| Airport | Bari Karol Wojtyła International Airport (LIBD) |
| Time | Latitude | Longitude | Altitude | Speed | Heading |
|---|---|---|---|---|---|
| 2026-05-08 20:53 | 48.16944 | 17.20133 | 421 ft | 0 kts | 313° |
| 2026-05-08 21:04 | 48.16933 | 17.20149 | 417 ft | 4 kts | 326° |
| 2026-05-08 21:04 | 48.16910 | 17.20164 | 419 ft | 4 kts | 358° |
| 2026-05-08 21:04 | 48.16884 | 17.20158 | 428 ft | 4 kts | 28° |
| 2026-05-08 21:04 | 48.16871 | 17.20145 | 431 ft | 0 kts | 44° |
| 2026-05-08 21:09 | 48.16875 | 17.20150 | 431 ft | 4 kts | 44° |
| 2026-05-08 21:09 | 48.16917 | 17.20211 | 425 ft | 13 kts | 44° |
| 2026-05-08 21:09 | 48.17005 | 17.20338 | 427 ft | 22 kts | 44° |
| 2026-05-08 21:10 | 48.17132 | 17.20519 | 423 ft | 26 kts | 44° |
| 2026-05-08 21:10 | 48.17127 | 17.20710 | 422 ft | 20 kts | 132° |
| 2026-05-08 21:10 | 48.17025 | 17.20870 | 420 ft | 23 kts | 132° |
| 2026-05-08 21:10 | 48.16905 | 17.21064 | 427 ft | 28 kts | 134° |
| 2026-05-08 21:11 | 48.16772 | 17.21274 | 425 ft | 27 kts | 133° |
| 2026-05-08 21:11 | 48.16645 | 17.21469 | 428 ft | 25 kts | 134° |
| 2026-05-08 21:11 | 48.16526 | 17.21651 | 420 ft | 24 kts | 134° |
| 2026-05-08 21:11 | 48.16415 | 17.21824 | 425 ft | 23 kts | 134° |
| 2026-05-08 21:12 | 48.16308 | 17.21992 | 421 ft | 22 kts | 134° |
| 2026-05-08 21:12 | 48.16206 | 17.22152 | 425 ft | 21 kts | 133° |
| 2026-05-08 21:12 | 48.16104 | 17.22309 | 425 ft | 21 kts | 134° |
| 2026-05-08 21:12 | 48.16001 | 17.22466 | 425 ft | 22 kts | 134° |
| 2026-05-08 21:13 | 48.15888 | 17.22639 | 427 ft | 24 kts | 134° |
| 2026-05-08 21:13 | 48.15771 | 17.22823 | 426 ft | 24 kts | 134° |
| 2026-05-08 21:13 | 48.15693 | 17.23012 | 430 ft | 21 kts | 103° |
| 2026-05-08 21:13 | 48.15713 | 17.23186 | 423 ft | 18 kts | 27° |
| 2026-05-08 21:14 | 48.15818 | 17.23113 | 424 ft | 20 kts | 314° |
| 2026-05-08 21:14 | 48.16058 | 17.22739 | 429 ft | 86 kts | 314° |
| 2026-05-08 21:14 | 48.16630 | 17.21854 | 429 ft | 148 kts | 314° |
| 2026-05-08 21:14 | 48.17414 | 17.20630 | 894 ft | 164 kts | 313° |
| 2026-05-08 21:15 | 48.18231 | 17.19389 | 1629 ft | 172 kts | 329° |
| 2026-05-08 21:15 | 48.19372 | 17.19044 | 2410 ft | 171 kts | 7° |
| 2026-05-08 21:15 | 48.20170 | 17.19417 | 2720 ft | 188 kts | 27° |
| 2026-05-08 21:15 | 48.21186 | 17.20793 | 3143 ft | 207 kts | 58° |
| 2026-05-08 21:16 | 48.21596 | 17.22934 | 3526 ft | 221 kts | 80° |
| 2026-05-08 21:16 | 48.21833 | 17.25246 | 4082 ft | 226 kts | 80° |
| 2026-05-08 21:16 | 48.22078 | 17.27682 | 4353 ft | 250 kts | 81° |
| 2026-05-08 21:16 | 48.22343 | 17.30341 | 4737 ft | 269 kts | 81° |
| 2026-05-08 21:17 | 48.22624 | 17.33180 | 5532 ft | 273 kts | 81° |
| 2026-05-08 21:17 | 48.22672 | 17.36023 | 6327 ft | 277 kts | 103° |
| 2026-05-08 21:17 | 48.22020 | 17.38746 | 7150 ft | 279 kts | 112° |
| 2026-05-08 21:17 | 48.21290 | 17.41468 | 7890 ft | 284 kts | 112° |
| 2026-05-08 21:18 | 48.20565 | 17.44201 | 8641 ft | 288 kts | 112° |
| 2026-05-08 21:18 | 48.19825 | 17.47008 | 9412 ft | 291 kts | 111° |
| 2026-05-08 21:18 | 48.19074 | 17.49848 | 10142 ft | 295 kts | 114° |
| 2026-05-08 21:18 | 48.17942 | 17.52476 | 10542 ft | 312 kts | 135° |
| 2026-05-08 21:19 | 48.16201 | 17.54586 | 10739 ft | 333 kts | 150° |
| 2026-05-08 21:19 | 48.13992 | 17.55823 | 11124 ft | 345 kts | 169° |
| 2026-05-08 21:19 | 48.11623 | 17.56544 | 11777 ft | 350 kts | 171° |
| 2026-05-08 21:19 | 48.09221 | 17.57219 | 12546 ft | 352 kts | 171° |
| 2026-05-08 21:20 | 48.06812 | 17.57896 | 13316 ft | 354 kts | 171° |
| 2026-05-08 21:20 | 48.04374 | 17.58596 | 14057 ft | 358 kts | 171° |
| 2026-05-08 21:20 | 48.01922 | 17.59316 | 14799 ft | 361 kts | 171° |
| 2026-05-08 21:20 | 47.99450 | 17.60053 | 15541 ft | 364 kts | 171° |
| 2026-05-08 21:21 | 47.96955 | 17.60803 | 16285 ft | 367 kts | 171° |
| 2026-05-08 21:21 | 47.94438 | 17.61561 | 17017 ft | 370 kts | 171° |
| 2026-05-08 21:21 | 47.91903 | 17.62326 | 17707 ft | 373 kts | 171° |
| 2026-05-08 21:21 | 47.89345 | 17.63097 | 18376 ft | 377 kts | 171° |
| 2026-05-08 21:22 | 47.86766 | 17.63877 | 19014 ft | 380 kts | 171° |
| 2026-05-08 21:22 | 47.84158 | 17.64661 | 19635 ft | 384 kts | 171° |
| 2026-05-08 21:22 | 47.81530 | 17.65450 | 20252 ft | 387 kts | 171° |
| 2026-05-08 21:22 | 47.78860 | 17.65831 | 20789 ft | 387 kts | 187° |
| 2026-05-08 21:23 | 47.76259 | 17.64921 | 21383 ft | 385 kts | 203° |
| 2026-05-08 21:23 | 47.73781 | 17.63400 | 21980 ft | 386 kts | 205° |
| 2026-05-08 21:23 | 47.71305 | 17.61807 | 22480 ft | 390 kts | 205° |
| 2026-05-08 21:23 | 47.68835 | 17.60206 | 22977 ft | 394 kts | 205° |
| 2026-05-08 21:24 | 47.66277 | 17.58560 | 23502 ft | 397 kts | 205° |
| 2026-05-08 21:24 | 47.63767 | 17.56961 | 24028 ft | 399 kts | 205° |
| 2026-05-08 21:24 | 47.61201 | 17.55342 | 24523 ft | 402 kts | 205° |
| 2026-05-08 21:24 | 47.58617 | 17.53722 | 24994 ft | 405 kts | 205° |
| 2026-05-08 21:25 | 47.56016 | 17.52099 | 25493 ft | 407 kts | 205° |
| 2026-05-08 21:25 | 47.53405 | 17.50473 | 25981 ft | 408 kts | 205° |
| 2026-05-08 21:25 | 47.50782 | 17.48841 | 26442 ft | 410 kts | 205° |
| 2026-05-08 21:25 | 47.48141 | 17.47202 | 26870 ft | 412 kts | 205° |
| 2026-05-08 21:26 | 47.45492 | 17.45557 | 27287 ft | 414 kts | 205° |
| 2026-05-08 21:26 | 47.42827 | 17.43905 | 27692 ft | 417 kts | 205° |
| 2026-05-08 21:26 | 47.40148 | 17.42244 | 28087 ft | 418 kts | 205° |
| 2026-05-08 21:26 | 47.37462 | 17.40580 | 28464 ft | 420 kts | 205° |
| 2026-05-08 21:27 | 47.34760 | 17.38910 | 28840 ft | 422 kts | 205° |
| 2026-05-08 21:27 | 47.32057 | 17.37242 | 29315 ft | 420 kts | 205° |
| 2026-05-08 21:27 | 47.29373 | 17.35588 | 29853 ft | 417 kts | 205° |
| 2026-05-08 21:27 | 47.26704 | 17.33945 | 30393 ft | 414 kts | 205° |
| 2026-05-08 21:28 | 47.23994 | 17.32504 | 30861 ft | 415 kts | 199° |
| 2026-05-08 21:28 | 47.21206 | 17.31438 | 31329 ft | 413 kts | 197° |
| 2026-05-08 21:28 | 47.18416 | 17.30441 | 31759 ft | 412 kts | 197° |
| 2026-05-08 21:28 | 47.15632 | 17.29462 | 32225 ft | 410 kts | 197° |
| 2026-05-08 21:29 | 47.12872 | 17.28485 | 32675 ft | 407 kts | 197° |
| 2026-05-08 21:29 | 47.10122 | 17.27498 | 33066 ft | 406 kts | 197° |
| 2026-05-08 21:29 | 47.07387 | 17.26507 | 33464 ft | 404 kts | 197° |
| 2026-05-08 21:29 | 47.04663 | 17.25513 | 33883 ft | 402 kts | 197° |
| 2026-05-08 21:30 | 47.01958 | 17.24523 | 34283 ft | 400 kts | 197° |
| 2026-05-08 21:30 | 46.99262 | 17.23533 | 34606 ft | 400 kts | 197° |
| 2026-05-08 21:30 | 46.96550 | 17.22536 | 34780 ft | 403 kts | 197° |
| 2026-05-08 21:30 | 46.93820 | 17.21532 | 34984 ft | 405 kts | 197° |
| 2026-05-08 21:31 | 46.91077 | 17.20526 | 35075 ft | 409 kts | 197° |
| 2026-05-08 21:31 | 46.85533 | 17.18500 | 35074 ft | 410 kts | 197° |
| 2026-05-08 21:32 | 46.80051 | 17.16506 | 35077 ft | 403 kts | 197° |
| 2026-05-08 21:32 | 46.74601 | 17.14522 | 35085 ft | 404 kts | 197° |
| 2026-05-08 21:33 | 46.69176 | 17.12551 | 35078 ft | 405 kts | 197° |
| 2026-05-08 21:33 | 46.63705 | 17.10568 | 35079 ft | 405 kts | 197° |
| 2026-05-08 21:34 | 46.58236 | 17.08590 | 35078 ft | 406 kts | 197° |
| 2026-05-08 21:34 | 46.52749 | 17.06609 | 35077 ft | 406 kts | 196° |
| 2026-05-08 21:35 | 46.47262 | 17.04635 | 35070 ft | 406 kts | 196° |
| 2026-05-08 21:35 | 46.41780 | 17.02660 | 35077 ft | 406 kts | 196° |
| 2026-05-08 21:36 | 46.36301 | 17.00699 | 35077 ft | 406 kts | 196° |
| 2026-05-08 21:36 | 46.30810 | 16.98733 | 35083 ft | 406 kts | 196° |
| 2026-05-08 21:37 | 46.25313 | 16.96813 | 35085 ft | 408 kts | 192° |
| 2026-05-08 21:37 | 46.19624 | 16.96512 | 35098 ft | 412 kts | 180° |
| 2026-05-08 21:38 | 46.13894 | 16.97012 | 35078 ft | 413 kts | 180° |
| 2026-05-08 21:38 | 46.08162 | 16.97498 | 35085 ft | 413 kts | 180° |
| 2026-05-08 21:39 | 46.02429 | 16.97953 | 35087 ft | 412 kts | 180° |
| 2026-05-08 21:39 | 45.96696 | 16.98395 | 35080 ft | 413 kts | 180° |
| 2026-05-08 21:40 | 45.90956 | 16.98831 | 35088 ft | 413 kts | 180° |
| 2026-05-08 21:40 | 45.85212 | 16.99267 | 35079 ft | 414 kts | 180° |
| 2026-05-08 21:41 | 45.76579 | 16.99923 | 35080 ft | 414 kts | 180° |
| 2026-05-08 21:41 | 45.70823 | 17.00357 | 35082 ft | 414 kts | 180° |
| 2026-05-08 21:42 | 45.65064 | 17.00794 | 35075 ft | 415 kts | 180° |
| 2026-05-08 21:42 | 45.59291 | 17.01228 | 35078 ft | 415 kts | 180° |
| 2026-05-08 21:43 | 45.53522 | 17.01660 | 35072 ft | 416 kts | 180° |
| 2026-05-08 21:43 | 45.47735 | 17.02095 | 35078 ft | 417 kts | 180° |
| 2026-05-08 21:44 | 45.41943 | 17.02527 | 35071 ft | 417 kts | 180° |
| 2026-05-08 21:44 | 45.36150 | 17.02960 | 35078 ft | 417 kts | 180° |
| 2026-05-08 21:45 | 45.30349 | 17.03392 | 35078 ft | 418 kts | 180° |
| 2026-05-08 21:45 | 45.24544 | 17.03825 | 35076 ft | 418 kts | 180° |
| 2026-05-08 21:46 | 45.18736 | 17.04257 | 35066 ft | 418 kts | 180° |
| 2026-05-08 21:46 | 45.12923 | 17.04687 | 35071 ft | 418 kts | 180° |
| 2026-05-08 21:47 | 45.07114 | 17.05114 | 35067 ft | 418 kts | 180° |
| 2026-05-08 21:47 | 45.01295 | 17.05546 | 35080 ft | 419 kts | 180° |
| 2026-05-08 21:48 | 44.95477 | 17.05981 | 35072 ft | 419 kts | 180° |
| 2026-05-08 21:48 | 44.89653 | 17.06529 | 35080 ft | 420 kts | 179° |
| 2026-05-08 21:49 | 44.83829 | 17.07119 | 35072 ft | 420 kts | 179° |
| 2026-05-08 21:49 | 44.78035 | 17.07694 | 35076 ft | 420 kts | 179° |
| 2026-05-08 21:50 | 44.72201 | 17.08264 | 35077 ft | 420 kts | 179° |
| 2026-05-08 21:50 | 44.66358 | 17.08830 | 35076 ft | 421 kts | 179° |
| 2026-05-08 21:51 | 44.60503 | 17.09395 | 35063 ft | 421 kts | 179° |
| 2026-05-08 21:51 | 44.54657 | 17.09959 | 35075 ft | 421 kts | 179° |
| 2026-05-08 21:52 | 44.48811 | 17.10520 | 35075 ft | 421 kts | 179° |
| 2026-05-08 21:52 | 44.42960 | 17.11083 | 35077 ft | 422 kts | 179° |
| 2026-05-08 21:53 | 44.37097 | 17.11646 | 35079 ft | 422 kts | 179° |
| 2026-05-08 21:53 | 44.31224 | 17.12207 | 35071 ft | 423 kts | 179° |
| 2026-05-08 21:54 | 44.25342 | 17.12767 | 35062 ft | 424 kts | 179° |
| 2026-05-08 21:54 | 44.19456 | 17.13328 | 35059 ft | 424 kts | 179° |
| 2026-05-08 21:55 | 44.13577 | 17.13888 | 35063 ft | 424 kts | 179° |
| 2026-05-08 21:56 | 44.04761 | 17.14724 | 35066 ft | 423 kts | 179° |
| 2026-05-08 21:56 | 43.98889 | 17.15281 | 35056 ft | 422 kts | 179° |
| 2026-05-08 21:57 | 43.93021 | 17.15835 | 35054 ft | 423 kts | 180° |
| 2026-05-08 21:57 | 43.87139 | 17.16388 | 35062 ft | 425 kts | 180° |
| 2026-05-08 21:58 | 43.81232 | 17.16943 | 35057 ft | 426 kts | 180° |
| 2026-05-08 21:58 | 43.75308 | 17.17500 | 35056 ft | 428 kts | 180° |
| 2026-05-08 21:59 | 43.69364 | 17.18057 | 35056 ft | 428 kts | 180° |
| 2026-05-08 21:59 | 43.63409 | 17.18613 | 35061 ft | 429 kts | 180° |
| 2026-05-08 22:00 | 43.57476 | 17.19166 | 35058 ft | 431 kts | 180° |
| 2026-05-08 22:00 | 43.51496 | 17.19723 | 35052 ft | 430 kts | 180° |
| 2026-05-08 22:01 | 43.45528 | 17.20039 | 35057 ft | 428 kts | 184° |
| 2026-05-08 22:01 | 43.39572 | 17.20005 | 35049 ft | 428 kts | 185° |
| 2026-05-08 22:02 | 43.34619 | 17.19962 | 35056 ft | 428 kts | 185° |
| 2026-05-08 22:02 | 43.28671 | 17.19946 | 35056 ft | 428 kts | 185° |
| 2026-05-08 22:03 | 43.22715 | 17.19954 | 35047 ft | 428 kts | 185° |
| 2026-05-08 22:03 | 43.16753 | 17.19967 | 34855 ft | 431 kts | 185° |
| 2026-05-08 22:03 | 43.13747 | 17.19972 | 34374 ft | 431 kts | 185° |
| 2026-05-08 22:04 | 43.10743 | 17.19980 | 33813 ft | 431 kts | 185° |
| 2026-05-08 22:04 | 43.07745 | 17.19987 | 33247 ft | 431 kts | 185° |
| 2026-05-08 22:04 | 43.04744 | 17.19994 | 32665 ft | 432 kts | 185° |
| 2026-05-08 22:04 | 43.01735 | 17.20000 | 32062 ft | 433 kts | 185° |
| 2026-05-08 22:05 | 42.98723 | 17.20006 | 31450 ft | 434 kts | 185° |
| 2026-05-08 22:05 | 42.95701 | 17.20013 | 30878 ft | 434 kts | 185° |
| 2026-05-08 22:05 | 42.92700 | 17.20021 | 30429 ft | 430 kts | 184° |
| 2026-05-08 22:05 | 42.89717 | 17.20028 | 29963 ft | 427 kts | 185° |
| 2026-05-08 22:06 | 42.86758 | 17.20035 | 29502 ft | 423 kts | 185° |
| 2026-05-08 22:06 | 42.83825 | 17.20042 | 29032 ft | 420 kts | 184° |
| 2026-05-08 22:06 | 42.80912 | 17.20048 | 28563 ft | 416 kts | 185° |
| 2026-05-08 22:06 | 42.78027 | 17.20053 | 28101 ft | 413 kts | 185° |
| 2026-05-08 22:07 | 42.75157 | 17.20059 | 27636 ft | 411 kts | 184° |
| 2026-05-08 22:07 | 42.72311 | 17.20065 | 27180 ft | 408 kts | 184° |
| 2026-05-08 22:07 | 42.69484 | 17.20070 | 26721 ft | 405 kts | 184° |
| 2026-05-08 22:07 | 42.66677 | 17.20076 | 26268 ft | 402 kts | 184° |
| 2026-05-08 22:08 | 42.63887 | 17.20081 | 25829 ft | 400 kts | 184° |
| 2026-05-08 22:08 | 42.61116 | 17.20086 | 25364 ft | 397 kts | 184° |
| 2026-05-08 22:08 | 42.58363 | 17.20091 | 24922 ft | 394 kts | 184° |
| 2026-05-08 22:08 | 42.55628 | 17.20097 | 24475 ft | 392 kts | 184° |
| 2026-05-08 22:09 | 42.52913 | 17.20122 | 24032 ft | 390 kts | 182° |
| 2026-05-08 22:09 | 42.50208 | 17.20275 | 23585 ft | 388 kts | 180° |
| 2026-05-08 22:09 | 42.47523 | 17.20494 | 23141 ft | 386 kts | 180° |
| 2026-05-08 22:09 | 42.44849 | 17.20729 | 22700 ft | 383 kts | 180° |
| 2026-05-08 22:10 | 42.42201 | 17.20960 | 22262 ft | 381 kts | 180° |
| 2026-05-08 22:10 | 42.39561 | 17.21183 | 21827 ft | 378 kts | 180° |
| 2026-05-08 22:10 | 42.36945 | 17.21397 | 21396 ft | 376 kts | 180° |
| 2026-05-08 22:10 | 42.34342 | 17.21603 | 20962 ft | 374 kts | 180° |
| 2026-05-08 22:11 | 42.31786 | 17.21802 | 20536 ft | 371 kts | 180° |
| 2026-05-08 22:11 | 42.29216 | 17.22002 | 20099 ft | 369 kts | 180° |
| 2026-05-08 22:11 | 42.26657 | 17.22199 | 19686 ft | 367 kts | 180° |
| 2026-05-08 22:11 | 42.24115 | 17.22396 | 19269 ft | 365 kts | 180° |
| 2026-05-08 22:12 | 42.21589 | 17.22591 | 18849 ft | 363 kts | 180° |
| 2026-05-08 22:12 | 42.19078 | 17.22784 | 18433 ft | 360 kts | 180° |
| 2026-05-08 22:12 | 42.16586 | 17.22976 | 18014 ft | 358 kts | 180° |
| 2026-05-08 22:12 | 42.14109 | 17.23166 | 17613 ft | 356 kts | 179° |
| 2026-05-08 22:13 | 42.11644 | 17.23356 | 17203 ft | 353 kts | 179° |
| 2026-05-08 22:13 | 42.09195 | 17.23544 | 16797 ft | 352 kts | 179° |
| 2026-05-08 22:13 | 42.06764 | 17.23730 | 16395 ft | 349 kts | 179° |
| 2026-05-08 22:13 | 42.04345 | 17.23916 | 15995 ft | 347 kts | 179° |
| 2026-05-08 22:14 | 42.01943 | 17.24100 | 15597 ft | 345 kts | 179° |
| 2026-05-08 22:14 | 41.99556 | 17.24283 | 15201 ft | 343 kts | 178° |
| 2026-05-08 22:14 | 41.97183 | 17.24465 | 14804 ft | 341 kts | 179° |
| 2026-05-08 22:14 | 41.94823 | 17.24600 | 14406 ft | 337 kts | 185° |
| 2026-05-08 22:15 | 41.92571 | 17.23944 | 14013 ft | 330 kts | 205° |
| 2026-05-08 22:15 | 41.90637 | 17.22358 | 13639 ft | 324 kts | 221° |
| 2026-05-08 22:15 | 41.88948 | 17.20373 | 13265 ft | 322 kts | 223° |
| 2026-05-08 22:15 | 41.87298 | 17.18355 | 12879 ft | 320 kts | 224° |
| 2026-05-08 22:16 | 41.85657 | 17.16347 | 12489 ft | 319 kts | 223° |
| 2026-05-08 22:16 | 41.84017 | 17.14357 | 12107 ft | 317 kts | 223° |
| 2026-05-08 22:16 | 41.82377 | 17.12383 | 11720 ft | 316 kts | 222° |
| 2026-05-08 22:16 | 41.80742 | 17.10426 | 11345 ft | 314 kts | 222° |
| 2026-05-08 22:17 | 41.79112 | 17.08480 | 10964 ft | 314 kts | 222° |
| 2026-05-08 22:17 | 41.77483 | 17.06544 | 10621 ft | 311 kts | 221° |
| 2026-05-08 22:17 | 41.75889 | 17.04650 | 10498 ft | 302 kts | 222° |
| 2026-05-08 22:17 | 41.74335 | 17.02805 | 10358 ft | 294 kts | 221° |
| 2026-05-08 22:18 | 41.72756 | 17.01132 | 10217 ft | 286 kts | 209° |
| 2026-05-08 22:18 | 41.70920 | 17.00230 | 10120 ft | 278 kts | 195° |
| 2026-05-08 22:18 | 41.69078 | 16.99565 | 9928 ft | 273 kts | 195° |
| 2026-05-08 22:18 | 41.67248 | 16.98904 | 9663 ft | 271 kts | 195° |
| 2026-05-08 22:19 | 41.65430 | 16.98239 | 9395 ft | 271 kts | 195° |
| 2026-05-08 22:19 | 41.63617 | 16.97567 | 9123 ft | 270 kts | 195° |
| 2026-05-08 22:19 | 41.61808 | 16.96890 | 8855 ft | 272 kts | 195° |
| 2026-05-08 22:19 | 41.59963 | 16.96195 | 8589 ft | 278 kts | 195° |
| 2026-05-08 22:20 | 41.58091 | 16.95488 | 8306 ft | 281 kts | 195° |
| 2026-05-08 22:20 | 41.56213 | 16.94779 | 8017 ft | 280 kts | 195° |
| 2026-05-08 22:20 | 41.54338 | 16.94071 | 7717 ft | 279 kts | 195° |
| 2026-05-08 22:20 | 41.52420 | 16.93845 | 7360 ft | 279 kts | 168° |
| 2026-05-08 22:21 | 41.50596 | 16.94653 | 7114 ft | 276 kts | 156° |
| 2026-05-08 22:21 | 41.48832 | 16.95656 | 6830 ft | 276 kts | 156° |
| 2026-05-08 22:21 | 41.47067 | 16.96656 | 6558 ft | 275 kts | 156° |
| 2026-05-08 22:21 | 41.45328 | 16.97628 | 6434 ft | 268 kts | 157° |
| 2026-05-08 22:22 | 41.43599 | 16.98585 | 6263 ft | 272 kts | 158° |
| 2026-05-08 22:22 | 41.41816 | 16.99487 | 5991 ft | 276 kts | 159° |
| 2026-05-08 22:22 | 41.40011 | 17.00361 | 5716 ft | 275 kts | 160° |
| 2026-05-08 22:22 | 41.38214 | 17.01234 | 5440 ft | 274 kts | 160° |
| 2026-05-08 22:23 | 41.36436 | 17.02105 | 5210 ft | 270 kts | 160° |
| 2026-05-08 22:23 | 41.34695 | 17.02958 | 5090 ft | 263 kts | 160° |
| 2026-05-08 22:23 | 41.32982 | 17.03794 | 4968 ft | 261 kts | 161° |
| 2026-05-08 22:23 | 41.31244 | 17.04388 | 4800 ft | 255 kts | 168° |
| 2026-05-08 22:24 | 41.29522 | 17.04847 | 4636 ft | 250 kts | 169° |
| 2026-05-08 22:24 | 41.27838 | 17.05299 | 4483 ft | 245 kts | 168° |
| 2026-05-08 22:24 | 41.26202 | 17.05752 | 4334 ft | 241 kts | 168° |
| 2026-05-08 22:24 | 41.24582 | 17.06207 | 4186 ft | 236 kts | 169° |
| 2026-05-08 22:25 | 41.22982 | 17.06226 | 4014 ft | 229 kts | 199° |
| 2026-05-08 22:25 | 41.21683 | 17.05127 | 3830 ft | 221 kts | 230° |
| 2026-05-08 22:25 | 41.20936 | 17.03379 | 3631 ft | 217 kts | 254° |
| 2026-05-08 22:25 | 41.20608 | 17.01450 | 3458 ft | 212 kts | 259° |
| 2026-05-08 22:26 | 41.20322 | 16.99556 | 3232 ft | 205 kts | 260° |
| 2026-05-08 22:26 | 41.19986 | 16.97749 | 3017 ft | 198 kts | 253° |
| 2026-05-08 22:26 | 41.19525 | 16.96050 | 2801 ft | 193 kts | 251° |
| 2026-05-08 22:26 | 41.19056 | 16.94396 | 2612 ft | 192 kts | 250° |
| 2026-05-08 22:27 | 41.18585 | 16.92740 | 2506 ft | 192 kts | 250° |
| 2026-05-08 22:27 | 41.18117 | 16.91099 | 2280 ft | 188 kts | 250° |
| 2026-05-08 22:27 | 41.17660 | 16.89494 | 2042 ft | 184 kts | 250° |
| 2026-05-08 22:27 | 41.17213 | 16.87922 | 1804 ft | 180 kts | 250° |
| 2026-05-08 22:28 | 41.16775 | 16.86380 | 1568 ft | 178 kts | 250° |
| 2026-05-08 22:28 | 41.16344 | 16.84859 | 1336 ft | 173 kts | 250° |
| 2026-05-08 22:28 | 41.15934 | 16.83413 | 1125 ft | 161 kts | 250° |
| 2026-05-08 22:28 | 41.15560 | 16.82092 | 899 ft | 147 kts | 250° |
| 2026-05-08 22:29 | 41.15206 | 16.80843 | 721 ft | 143 kts | 250° |
| 2026-05-08 22:29 | 41.14856 | 16.79608 | 537 ft | 144 kts | 250° |
| 2026-05-08 22:29 | 41.14508 | 16.78371 | 357 ft | 143 kts | 250° |
| 2026-05-08 22:29 | 41.14156 | 16.77138 | 161 ft | 142 kts | 250° |
| 2026-05-08 22:30 | 41.13860 | 16.76088 | 150 ft | 92 kts | 249° |
| 2026-05-08 22:30 | 41.13711 | 16.75556 | 151 ft | 46 kts | 249° |
| 2026-05-08 22:30 | 41.13602 | 16.75171 | 148 ft | 44 kts | 249° |
| 2026-05-08 22:30 | 41.13513 | 16.74860 | 147 ft | 24 kts | 248° |
| 2026-05-08 22:31 | 41.13451 | 16.74739 | 147 ft | 14 kts | 200° |
| 2026-05-08 22:31 | 41.13382 | 16.74804 | 155 ft | 13 kts | 122° |
| 2026-05-08 22:31 | 41.13344 | 16.74911 | 157 ft | 13 kts | 91° |
| 2026-05-08 22:31 | 41.13374 | 16.75036 | 157 ft | 17 kts | 69° |
| 2026-05-08 22:32 | 41.13422 | 16.75203 | 157 ft | 22 kts | 70° |
| 2026-05-08 22:32 | 41.13482 | 16.75417 | 157 ft | 26 kts | 69° |
| 2026-05-08 22:32 | 41.13544 | 16.75632 | 157 ft | 24 kts | 69° |
| 2026-05-08 22:32 | 41.13602 | 16.75836 | 157 ft | 23 kts | 69° |
| 2026-05-08 22:33 | 41.13658 | 16.76028 | 157 ft | 16 kts | 69° |
| 2026-05-08 22:33 | 41.13661 | 16.76039 | 157 ft | 0 kts | 69° |
| 2026-05-08 22:33 | 41.13670 | 16.76073 | 157 ft | 10 kts | 70° |
| 2026-05-08 22:33 | 41.13705 | 16.76202 | 157 ft | 17 kts | 70° |
| 2026-05-08 22:34 | 41.13746 | 16.76349 | 157 ft | 17 kts | 70° |
| 2026-05-08 22:34 | 41.13785 | 16.76490 | 157 ft | 15 kts | 74° |
| 2026-05-08 22:34 | 41.13734 | 16.76580 | 157 ft | 12 kts | 146° |
| 2026-05-08 22:34 | 41.13679 | 16.76620 | 158 ft | 8 kts | 160° |
| 2026-05-08 22:35 | 41.13657 | 16.76626 | 158 ft | 2 kts | 194° |
| 2026-05-08 22:35 | 41.13650 | 16.76617 | 158 ft | 0 kts | 214° |
| 2026-05-08 22:35 | 41.13649 | 16.76617 | 158 ft | 0 kts | 208° |